Flight Track Log - Related Links

Times and Time Zones

All times are in EDT time to prevent confusion due to time zone crossing. See the UAL4843 flight status page for this flight to view local times or setup timezone preferences in your user account.

Time Position Orientation Groundspeed Altitude Reporting Facility
EDT Latitude Longitude Course Direction KTS MPH feet Rate Location/Type
Sat 12:43:00 PM 40.5267 -74.4518 232° Southwest  Level Estimated
Sat 12:44:00 PM 40.5029 -74.4922 232° Southwest  Level Estimated
Sat 12:45:00 PM 40.4792 -74.5325 232° Southwest  Level Estimated
Sat 12:46:00 PM 40.4554 -74.5727 232° Southwest  Level Estimated
Sat 12:47:00 PM 40.4316 -74.6130 232° Southwest  Level Estimated
Sat 12:48:00 PM 40.4078 -74.6532 232° Southwest  Level Estimated
Sat 12:49:00 PM 40.3840 -74.6934 232° Southwest  Level Estimated
Sat 12:50:00 PM 40.3602 -74.7336 232° Southwest  Level Estimated
Sat 12:51:00 PM 40.3363 -74.7737 232° Southwest  Level Estimated
Sat 12:52:00 PM 40.3125 -74.8138 232° Southwest  Level Estimated
Sat 12:53:00 PM 40.2886 -74.8539 232° Southwest  Level Estimated
Sat 12:54:00 PM 40.2647 -74.8940 232° Southwest  Level Estimated
Sat 12:55:00 PM 40.2408 -74.9340 232° Southwest  Level Estimated
Sat 12:56:00 PM 40.2169 -74.9740 232° Southwest  Level Estimated
Sat 12:57:00 PM 40.1930 -75.0139 232° Southwest  Level Estimated
Sat 12:58:00 PM 40.1690 -75.0539 232° Southwest  Level Estimated
Sat 12:59:00 PM 40.1451 -75.0938 232° Southwest  Level Estimated
Sat 01:00:00 PM 40.1211 -75.1337 232° Southwest  Level Estimated
Sat 01:01:00 PM 40.0971 -75.1735 232° Southwest  Level Estimated
Sat 01:02:00 PM 40.0731 -75.2133 232° Southwest  Level Estimated
Sat 01:03:00 PM 40.0491 -75.2531 232° Southwest  Level Estimated
Sat 01:04:00 PM 40.0251 -75.2929 232° Southwest  Level Estimated
Sat 01:05:00 PM 40.0011 -75.3326 232° Southwest  Level Estimated
Sat 01:06:00 PM 39.9770 -75.3724 232° Southwest  Level Estimated
Sat 01:07:00 PM 39.9530 -75.4120 232° Southwest  Level Estimated
Sat 01:08:00 PM 39.9289 -75.4517 232° Southwest  Level Estimated
Sat 01:09:00 PM 39.9048 -75.4913 232° Southwest  Level Estimated
Sat 01:10:00 PM 39.8807 -75.5309 232° Southwest  Level Estimated
Sat 01:11:00 PM 39.8566 -75.5705 232° Southwest  Level Estimated
Sat 01:12:00 PM 39.8325 -75.6101 232° Southwest  Level Estimated
Sat 01:13:00 PM 39.8083 -75.6496 232° Southwest  Level Estimated
Sat 01:14:00 PM 39.7841 -75.6891 231° Southwest  Level Estimated
Sat 01:15:00 PM 39.7600 -75.7285 231° Southwest  Level Estimated
Sat 01:16:00 PM 39.7358 -75.7680 231° Southwest  Level Estimated
Sat 01:17:00 PM 39.7116 -75.8074 231° Southwest  Level Estimated
Sat 01:18:00 PM 39.6874 -75.8468 231° Southwest  Level Estimated
Sat 01:19:00 PM 39.6632 -75.8861 231° Southwest  Level Estimated
Sat 01:20:00 PM 39.6389 -75.9254 231° Southwest  Level Estimated
Sat 01:21:00 PM 39.6147 -75.9647 231° Southwest  Level Estimated
Sat 01:22:00 PM 39.5904 -76.0040 231° Southwest  Level Estimated
Sat 01:23:00 PM 39.5661 -76.0432 231° Southwest  Level Estimated
Sat 01:24:00 PM 39.5419 -76.0825 231° Southwest  Level Estimated
Sat 01:25:00 PM 39.5176 -76.1216 231° Southwest  Level Estimated
Sat 01:26:00 PM 39.4932 -76.1608 231° Southwest  Level Estimated
Sat 01:27:00 PM 39.4689 -76.1999 231° Southwest  Level Estimated
Sat 01:28:00 PM 39.4446 -76.2390 231° Southwest  Level Estimated
Sat 01:29:00 PM 39.4202 -76.2781 231° Southwest  Level Estimated
Sat 01:30:00 PM 39.3958 -76.3172 231° Southwest  Level Estimated
Sat 01:31:00 PM 39.3715 -76.3562 231° Southwest  Level Estimated
Sat 01:32:00 PM 39.3471 -76.3952 231° Southwest  Level Estimated
Sat 01:33:00 PM 39.3227 -76.4342 231° Southwest  Level Estimated
Sat 01:34:00 PM 39.2982 -76.4731 231° Southwest  Level Estimated
Sat 01:35:00 PM 39.2738 -76.5120 231° Southwest  Level Estimated
Sat 01:36:00 PM 39.2494 -76.5509 231° Southwest  Level Estimated
Sat 01:37:00 PM 39.2249 -76.5898 231° Southwest  Level Estimated
Sat 01:38:00 PM 39.2004 -76.6286 231° Southwest  Level Estimated
Sat 01:39:00 PM 39.1759 -76.6674 231° Southwest  Level Estimated
Sat 01:40:00 PM 39.1754 -76.6683 231° Southwest  Level Estimated

Login

Don't have an account? Register now (free) for customized features, flight alerts, and more!